Time;durP1;ratioP1;P1;durP2;ratioP2;P2;SDS_P1;SDS_P2;PMS_P1;PMS_P2;Temp;Humidity;BMP_temperature;BMP_pressure;BME280_temperature;BME280_humidity;BME280_pressure;Samples;Min_cycle;Max_cycle;Signal;HPM_P1;HPM_P2
2023/08/06 00:01:37;;;;;;;5.88;4.00;;;;;;;18.83;100.00;63950.31;5083742;28;20234;-71
2023/08/06 00:04:04;;;;;;;5.18;4.68;;;;;;;18.78;100.00;63945.09;5083884;28;20223;-74
2023/08/06 00:06:31;;;;;;;4.53;4.13;;;;;;;18.84;100.00;63950.84;5083998;28;20232;-72
2023/08/06 00:08:58;;;;;;;5.70;5.07;;;;;;;18.93;100.00;63958.16;5080897;28;20224;-72
2023/08/06 00:11:25;;;;;;;8.20;5.03;;;;;;;18.90;100.00;63957.59;5082303;28;20249;-72
2023/08/06 00:13:52;;;;;;;6.75;5.30;;;;;;;18.93;100.00;63953.00;5081213;28;20273;-70
2023/08/06 00:16:20;;;;;;;5.97;4.45;;;;;;;18.75;100.00;63941.97;5084546;28;20196;-70
2023/08/06 00:18:47;;;;;;;6.50;4.70;;;;;;;18.78;100.00;63944.56;5082967;28;20239;-71
2023/08/06 00:21:14;;;;;;;5.93;4.93;;;;;;;18.84;100.00;63948.25;5078215;28;20493;-72
2023/08/06 00:23:42;;;;;;;5.40;4.95;;;;;;;18.82;100.00;63946.16;5081516;28;20216;-70
2023/08/06 00:26:09;;;;;;;6.03;5.18;;;;;;;18.91;100.00;63958.66;5082450;28;20226;-70
2023/08/06 00:28:36;;;;;;;5.78;5.13;;;;;;;18.95;100.00;63959.72;5082883;28;20293;-71
2023/08/06 00:31:03;;;;;;;6.10;4.80;;;;;;;19.03;100.00;63973.75;5082813;28;20283;-71
2023/08/06 00:33:31;;;;;;;6.30;4.88;;;;;;;19.09;100.00;63976.88;5081324;28;20254;-71
2023/08/06 00:35:58;;;;;;;6.90;5.13;;;;;;;18.92;100.00;63959.69;5082998;28;20388;-71
2023/08/06 00:38:25;;;;;;;4.93;4.53;;;;;;;18.89;100.00;63956.56;5081654;28;20393;-72
2023/08/06 00:40:53;;;;;;;5.45;4.95;;;;;;;18.96;100.00;63960.75;5081557;28;20211;-74
2023/08/06 00:43:19;;;;;;;6.07;4.90;;;;;;;18.96;100.00;63963.88;5083395;28;20246;-73
2023/08/06 00:45:47;;;;;;;4.93;4.43;;;;;;;18.96;100.00;63960.75;5081902;28;20425;-72
2023/08/06 00:48:16;;;;;;;5.82;4.72;;;;;;;18.89;100.00;63953.47;5079391;28;20543;-72
2023/08/06 00:50:44;;;;;;;4.75;4.25;;;;;;;18.89;100.00;63956.03;5082213;28;20267;-72
2023/08/06 00:53:11;;;;;;;4.93;4.28;;;;;;;18.82;100.00;63951.84;5081269;28;20219;-75
2023/08/06 00:55:40;;;;;;;6.97;4.82;;;;;;;18.80;100.00;63944.06;5083822;28;20516;-74
2023/08/06 00:58:08;;;;;;;4.07;3.75;;;;;;;18.71;100.00;63937.81;5080677;28;20236;-75
2023/08/06 01:00:34;;;;;;;5.05;3.83;;;;;;;18.63;100.00;63926.88;5082976;28;20200;-70
2023/08/06 01:03:02;;;;;;;4.43;4.03;;;;;;;18.63;100.00;63929.47;5081378;28;20288;-72
2023/08/06 01:05:28;;;;;;;5.10;4.35;;;;;;;18.49;100.00;63911.78;5082817;28;20239;-74
2023/08/06 01:08:12;;;;;;;4.72;4.25;;;;;;;18.43;100.00;63908.63;5082623;28;20239;-72
2023/08/06 01:10:52;;;;;;;4.47;4.07;;;;;;;18.44;100.00;63909.66;5079834;28;20242;-72
2023/08/06 01:13:26;;;;;;;4.35;3.88;;;;;;;18.49;100.00;63916.94;5067452;28;20287;-72
2023/08/06 01:15:57;;;;;;;5.10;4.50;;;;;;;18.62;100.00;63930.50;5080176;28;20440;-72
2023/08/06 01:18:24;;;;;;;4.88;4.38;;;;;;;18.69;100.00;63937.78;5083710;28;20227;-71
2023/08/06 01:20:52;;;;;;;4.78;4.38;;;;;;;18.79;100.00;63943.03;5082692;28;20508;-71
2023/08/06 01:23:20;;;;;;;4.55;4.18;;;;;;;18.65;100.00;63934.13;5086772;28;20216;-73
2023/08/06 01:25:56;;;;;;;4.28;3.88;;;;;;;18.85;100.00;63949.81;5086580;28;20518;-72
2023/08/06 01:28:30;;;;;;;5.00;4.55;;;;;;;18.89;100.00;63961.22;5082167;28;20593;-71
2023/08/06 01:31:02;;;;;;;4.70;3.85;;;;;;;18.94;100.00;63961.25;5067010;28;20205;-71
2023/08/06 01:33:33;;;;;;;4.72;4.35;;;;;;;18.91;100.00;63952.97;5078895;28;20220;-72
2023/08/06 01:36:02;;;;;;;4.47;4.18;;;;;;;19.00;100.00;63960.28;5086622;28;20199;-71
2023/08/06 01:38:29;;;;;;;4.45;4.13;;;;;;;18.77;100.00;63941.47;5083918;28;20247;-70
2023/08/06 01:40:56;;;;;;;5.15;4.72;;;;;;;18.70;100.00;63939.34;5084697;28;20493;-72
2023/08/06 01:43:22;;;;;;;5.18;3.97;;;;;;;18.71;100.00;63935.22;5086634;28;20295;-71
2023/08/06 01:45:49;;;;;;;5.07;4.68;;;;;;;18.76;100.00;63939.94;5086742;28;20247;-70
2023/08/06 01:48:16;;;;;;;5.38;4.93;;;;;;;18.76;100.00;63939.94;5081603;28;20254;-72
2023/08/06 01:50:43;;;;;;;6.18;5.13;;;;;;;18.85;100.00;63949.28;5084608;28;20197;-70
2023/08/06 01:53:11;;;;;;;4.72;4.32;;;;;;;18.96;100.00;63968.50;5086250;28;20216;-71
2023/08/06 01:55:38;;;;;;;5.25;4.85;;;;;;;18.97;100.00;63964.38;5086167;28;20192;-73
2023/08/06 01:58:05;;;;;;;4.07;3.83;;;;;;;19.06;100.00;63976.88;5081737;28;20246;-70
2023/08/06 02:00:32;;;;;;;4.53;3.95;;;;;;;18.83;100.00;63952.38;5086069;28;20199;-71
2023/08/06 02:02:59;;;;;;;4.53;4.22;;;;;;;18.86;100.00;63953.44;5083464;28;20219;-70
2023/08/06 02:05:26;;;;;;;5.38;4.90;;;;;;;18.85;100.00;63951.88;5083698;28;20202;-70
2023/08/06 02:07:53;;;;;;;6.03;4.93;;;;;;;18.58;100.00;63921.16;5080644;28;20231;-70
2023/08/06 02:10:21;;;;;;;6.00;5.50;;;;;;;18.37;100.00;63904.94;5084123;28;20196;-70
2023/08/06 02:12:48;;;;;;;6.22;5.65;;;;;;;18.39;100.00;63907.53;5085317;28;20215;-71
2023/08/06 02:15:14;;;;;;;6.78;6.03;;;;;;;18.49;100.00;63914.34;5083366;28;20210;-69
2023/08/06 02:17:41;;;;;;;8.27;6.82;;;;;;;18.56;100.00;63919.06;5082895;28;20206;-72
2023/08/06 02:20:09;;;;;;;7.13;6.43;;;;;;;18.63;100.00;63929.47;5084396;28;20558;-72
2023/08/06 02:22:36;;;;;;;7.70;6.32;;;;;;;18.63;100.00;63926.88;5084769;28;20486;-72
2023/08/06 02:25:03;;;;;;;6.35;5.82;;;;;;;18.72;100.00;63938.31;5081386;28;20270;-71
2023/08/06 02:27:31;;;;;;;6.60;6.00;;;;;;;18.60;100.00;63925.81;5085982;28;20223;-71
2023/08/06 02:29:58;;;;;;;7.25;6.35;;;;;;;18.55;100.00;63923.69;5085493;28;20196;-72
2023/08/06 02:32:25;;;;;;;6.43;5.80;;;;;;;18.49;100.00;63916.94;5081462;28;20220;-71
2023/08/06 02:34:52;;;;;;;5.60;5.18;;;;;;;18.57;100.00;63922.69;5084012;28;20434;-72
2023/08/06 02:37:19;;;;;;;5.97;5.47;;;;;;;18.57;100.00;63922.69;5083211;28;20243;-73
2023/08/06 02:39:46;;;;;;;6.18;5.57;;;;;;;18.59;100.00;63925.28;5085765;28;20227;-72
2023/08/06 02:42:13;;;;;;;5.57;5.07;;;;;;;18.61;100.00;63926.84;5083403;28;20208;-72
2023/08/06 02:44:41;;;;;;;5.00;4.60;;;;;;;18.57;100.00;63923.22;5085490;28;20282;-71
2023/08/06 02:47:08;;;;;;;5.15;4.57;;;;;;;18.57;100.00;63923.22;5083351;28;20227;-72
2023/08/06 02:49:34;;;;;;;4.80;4.50;;;;;;;18.48;100.00;63916.41;5082778;28;20231;-71
2023/08/06 02:52:01;;;;;;;6.47;4.50;;;;;;;18.34;100.00;63899.22;5081674;28;20493;-72
2023/08/06 02:54:28;;;;;;;5.20;4.72;;;;;;;18.33;100.00;63890.97;5085214;28;20232;-73
2023/08/06 02:56:55;;;;;;;4.72;4.18;;;;;;;18.30;100.00;63892.47;5083170;28;20212;-72
2023/08/06 02:59:22;;;;;;;5.07;4.60;;;;;;;18.36;100.00;63901.81;5080382;28;20244;-72
2023/08/06 03:01:50;;;;;;;5.32;4.93;;;;;;;18.53;100.00;63915.94;5085305;28;20230;-72
2023/08/06 03:04:18;;;;;;;5.57;5.07;;;;;;;18.55;100.00;63920.63;5084191;28;20226;-72
2023/08/06 03:06:45;;;;;;;4.93;4.50;;;;;;;18.28;100.00;63892.97;5083108;28;20196;-71
2023/08/06 03:09:11;;;;;;;5.88;5.38;;;;;;;18.33;100.00;63895.59;5080862;28;20246;-73
2023/08/06 03:11:38;;;;;;;6.93;4.97;;;;;;;18.54;100.00;63914.41;5084688;28;20452;-71
2023/08/06 03:14:05;;;;;;;5.80;4.70;;;;;;;18.53;100.00;63915.94;5084412;28;20226;-74
2023/08/06 03:16:32;;;;;;;4.97;4.57;;;;;;;18.50;100.00;63915.91;5082434;28;20412;-72
2023/08/06 03:19:01;;;;;;;4.90;4.35;;;;;;;18.67;100.00;63927.97;5079657;28;20227;-70
2023/08/06 03:21:28;;;;;;;6.00;4.47;;;;;;;18.63;100.00;63924.31;5085121;28;20204;-72
2023/08/06 03:23:55;;;;;;;8.20;4.70;;;;;;;18.67;100.00;63933.13;5084099;28;20251;-71
2023/08/06 03:26:22;;;;;;;5.05;4.47;;;;;;;18.51;100.00;63916.97;5079201;28;20200;-70
2023/08/06 03:28:49;;;;;;;5.07;4.78;;;;;;;18.48;100.00;63913.84;5073497;28;20227;-71
2023/08/06 03:31:16;;;;;;;5.15;4.53;;;;;;;18.50;100.00;63913.34;5084589;28;20200;-72
2023/08/06 03:33:43;;;;;;;4.90;4.47;;;;;;;18.43;100.00;63909.13;5081315;28;20220;-71
2023/08/06 03:36:11;;;;;;;4.68;4.25;;;;;;;18.56;100.00;63921.66;5081786;28;20203;-72
2023/08/06 03:38:38;;;;;;;4.30;3.88;;;;;;;18.49;100.00;63914.88;5084606;28;20394;-71
2023/08/06 03:41:05;;;;;;;6.43;4.63;;;;;;;18.62;100.00;63925.34;5081606;28;20295;-72
2023/08/06 03:43:32;;;;;;;6.32;5.78;;;;;;;18.65;100.00;63931.56;5081156;28;20450;-71
2023/08/06 03:45:58;;;;;;;5.40;4.10;;;;;;;18.74;100.00;63940.94;5081344;28;20245;-72
2023/08/06 03:48:25;;;;;;;4.45;4.20;;;;;;;18.77;100.00;63943.53;5083900;28;20239;-71
2023/08/06 03:50:52;;;;;;;5.53;5.13;;;;;;;18.74;100.00;63940.94;5082008;28;20202;-72
2023/08/06 03:53:20;;;;;;;5.20;4.80;;;;;;;18.72;100.00;63936.28;5081972;28;20228;-73
2023/08/06 03:55:47;;;;;;;5.25;4.35;;;;;;;18.80;100.00;63941.50;5083125;28;20263;-72
2023/08/06 03:58:14;;;;;;;4.55;4.20;;;;;;;18.91;100.00;63953.50;5083875;28;20285;-72
2023/08/06 04:00:42;;;;;;;6.10;4.22;;;;;;;18.77;100.00;63944.06;5082196;28;20263;-74
2023/08/06 04:03:08;;;;;;;4.00;3.70;;;;;;;18.61;100.00;63922.22;5080978;28;20238;-72
2023/08/06 04:05:35;;;;;;;4.85;4.35;;;;;;;18.55;100.00;63915.97;5083395;28;20259;-72
2023/08/06 04:08:02;;;;;;;5.53;4.38;;;;;;;18.58;100.00;63923.72;5082885;28;20298;-71
2023/08/06 04:10:30;;;;;;;4.20;4.00;;;;;;;18.58;100.00;63919.09;5084627;28;20214;-72
2023/08/06 04:12:57;;;;;;;5.03;4.55;;;;;;;18.70;100.00;63933.66;5081609;28;20231;-72
2023/08/06 04:15:24;;;;;;;4.97;4.50;;;;;;;18.70;100.00;63936.75;5083175;28;20480;-72
2023/08/06 04:17:51;;;;;;;4.80;4.20;;;;;;;18.75;100.00;63939.41;5077770;28;20227;-72
2023/08/06 04:20:18;;;;;;;4.13;3.83;;;;;;;18.83;100.00;63947.72;5083358;28;20265;-71
2023/08/06 04:22:45;;;;;;;4.40;4.10;;;;;;;18.97;100.00;63964.91;5081672;28;20422;-71
2023/08/06 04:25:12;;;;;;;4.63;4.32;;;;;;;19.09;100.00;63974.31;5079851;28;20196;-73
2023/08/06 04:27:41;;;;;;;4.93;4.10;;;;;;;19.14;100.00;63982.63;5079551;28;20493;-72
2023/08/06 04:30:09;;;;;;;4.60;4.25;;;;;;;19.10;100.00;63975.88;5083882;28;20200;-72
2023/08/06 04:32:36;;;;;;;4.00;3.72;;;;;;;19.20;100.00;63983.72;5081397;28;20204;-72
2023/08/06 04:35:03;;;;;;;4.65;4.25;;;;;;;19.22;100.00;63985.28;5080183;28;20208;-73
2023/08/06 04:37:29;;;;;;;4.38;4.03;;;;;;;19.21;100.00;63987.34;5081277;28;20199;-72
2023/08/06 04:39:56;;;;;;;5.50;5.10;;;;;;;19.24;100.00;63987.38;5085065;28;20192;-71
2023/08/06 04:42:23;;;;;;;6.82;5.00;;;;;;;19.18;100.00;63986.81;5082522;28;20211;-74
2023/08/06 04:44:56;;;;;;;5.53;5.13;;;;;;;19.14;100.00;63979.53;5081321;28;20440;-74
2023/08/06 04:47:23;;;;;;;5.78;5.25;;;;;;;19.17;100.00;63980.09;5084377;28;20204;-71
2023/08/06 04:49:50;;;;;;;5.72;5.30;;;;;;;19.23;100.00;63989.44;5095944;28;20252;-72
2023/08/06 04:52:17;;;;;;;4.68;4.35;;;;;;;19.23;100.00;63986.31;5085937;28;20202;-73
2023/08/06 04:54:45;;;;;;;5.00;4.47;;;;;;;19.24;100.00;63987.38;5085934;28;20226;-71
2023/08/06 04:57:11;;;;;;;5.43;4.43;;;;;;;19.25;100.00;63988.94;5087823;28;20199;-74
2023/08/06 04:59:38;;;;;;;5.05;4.65;;;;;;;19.11;100.00;63978.97;5082808;28;20288;-71
2023/08/06 05:02:07;;;;;;;5.28;4.88;;;;;;;19.04;100.00;63969.09;5087347;28;20271;-72
2023/08/06 05:04:33;;;;;;;6.75;5.22;;;;;;;19.14;100.00;63979.53;5086862;28;20211;-72
2023/08/06 05:07:00;;;;;;;5.40;4.82;;;;;;;18.99;100.00;63966.47;5084375;28;20208;-70
2023/08/06 05:09:27;;;;;;;6.10;5.38;;;;;;;18.94;100.00;63956.63;5084836;28;20247;-72
2023/08/06 05:11:54;;;;;;;6.03;5.53;;;;;;;18.95;100.00;63957.66;5087430;28;20196;-71
2023/08/06 05:14:21;;;;;;;6.05;5.47;;;;;;;19.27;100.00;63996.19;5087656;28;20234;-73
2023/08/06 05:16:48;;;;;;;6.22;5.75;;;;;;;19.30;100.00;63996.75;5083144;28;20379;-71
2023/08/06 05:19:17;;;;;;;5.28;4.88;;;;;;;19.45;100.00;64014.97;5078344;28;20231;-73
2023/08/06 05:21:44;;;;;;;6.63;5.45;;;;;;;19.48;100.00;64012.94;5086709;28;20196;-70
2023/08/06 05:24:12;;;;;;;5.80;5.40;;;;;;;19.37;100.00;64003.53;5086267;28;20246;-70
2023/08/06 05:26:39;;;;;;;5.90;5.50;;;;;;;19.33;100.00;63996.78;5081100;28;20238;-73
2023/08/06 05:29:05;;;;;;;6.57;6.07;;;;;;;19.18;100.00;63986.28;5084935;28;20234;-71
2023/08/06 05:31:32;;;;;;;8.48;7.78;;;;;;;19.01;100.00;63969.09;5086091;28;20378;-71
2023/08/06 05:33:59;;;;;;;11.85;10.75;;;;;;;18.95;100.00;63965.41;5086671;28;20215;-71
2023/08/06 05:36:27;;;;;;;12.00;10.82;;;;;;;19.12;100.00;63972.78;5082177;28;20204;-73
2023/08/06 05:38:54;;;;;;;10.80;9.80;;;;;;;19.18;100.00;63986.28;5082956;28;20528;-72
2023/08/06 05:41:21;;;;;;;11.70;9.95;;;;;;;19.39;100.00;64008.19;5087396;28;20275;-72
2023/08/06 05:43:48;;;;;;;14.30;10.30;;;;;;;19.46;100.00;64007.75;5084723;28;20280;-71
2023/08/06 05:46:15;;;;;;;22.83;13.40;;;;;;;19.65;100.00;64029.63;5084516;28;20224;-72
2023/08/06 05:48:42;;;;;;;12.15;10.18;;;;;;;19.83;100.00;64051.00;5083878;28;20236;-71
2023/08/06 05:51:09;;;;;;;12.45;10.23;;;;;;;19.86;100.00;64056.72;5085993;28;20395;-71
2023/08/06 05:53:38;;;;;;;13.32;11.57;;;;;;;20.00;100.00;64069.25;5085028;28;20236;-71
2023/08/06 05:56:05;;;;;;;12.63;10.95;;;;;;;20.02;100.00;64073.91;5086180;28;20204;-72
2023/08/06 05:58:33;;;;;;;14.38;11.93;;;;;;;20.03;100.00;64071.84;5084471;28;20227;-72
2023/08/06 06:00:59;;;;;;;13.80;12.40;;;;;;;20.14;100.00;64086.44;5084677;28;20280;-71
2023/08/06 06:03:26;;;;;;;16.92;13.13;;;;;;;20.49;100.00;64122.47;5081107;28;20229;-71
2023/08/06 06:05:53;;;;;;;14.10;12.63;;;;;;;20.73;100.00;64139.22;5085241;28;20200;-72
2023/08/06 06:08:20;;;;;;;16.30;13.55;;;;;;;20.62;100.00;64136.56;5082624;28;20224;-70
2023/08/06 06:10:48;;;;;;;17.23;13.55;;;;;;;20.90;100.00;64162.69;5083258;28;20222;-72
2023/08/06 06:13:16;;;;;;;13.13;11.82;;;;;;;21.10;100.00;64186.19;5081062;28;20413;-72
2023/08/06 06:15:43;;;;;;;12.00;10.90;;;;;;;21.47;100.00;64224.81;5085998;28;20200;-74
2023/08/06 06:18:10;;;;;;;11.68;10.68;;;;;;;21.52;100.00;64224.34;5085227;28;20244;-72
2023/08/06 06:20:37;;;;;;;11.52;10.43;;;;;;;21.93;100.00;64271.84;5081969;28;20211;-71
2023/08/06 06:23:04;;;;;;;10.75;9.85;;;;;;;22.25;100.00;64305.28;5081898;28;20212;-72
2023/08/06 06:25:31;;;;;;;10.85;9.73;;;;;;;22.24;100.00;64304.78;5086684;28;20253;-72
2023/08/06 06:27:59;;;;;;;10.60;9.70;;;;;;;22.18;100.00;64295.38;5083314;28;20250;-72
2023/08/06 06:30:26;;;;;;;13.23;10.40;;;;;;;22.24;100.00;64299.59;5080282;28;20507;-72
2023/08/06 06:32:53;;;;;;;10.60;9.65;;;;;;;22.23;100.00;64298.53;5080399;28;20253;-72
2023/08/06 06:35:20;;;;;;;11.65;9.90;;;;;;;22.12;100.00;64289.66;5082095;28;20202;-72
2023/08/06 06:37:47;;;;;;;10.40;9.40;;;;;;;21.69;100.00;64247.28;5085271;28;20271;-72
2023/08/06 06:40:14;;;;;;;9.77;8.93;;;;;;;21.07;100.00;64180.44;5082820;28;20245;-73
2023/08/06 06:42:40;;;;;;;11.65;10.45;;;;;;;20.89;100.00;64161.63;5083973;28;20208;-72
2023/08/06 06:45:10;;;;;;;8.57;7.78;;;;;;;20.74;100.00;64142.88;5082384;28;20196;-72
2023/08/06 06:47:37;;;;;;;7.30;6.55;;;;;;;20.73;100.00;64147.00;5085166;28;20204;-72
2023/08/06 06:50:05;;;;;;;5.78;5.30;;;;;;;20.69;100.00;64141.28;5083349;28;20540;-72
2023/08/06 06:52:32;;;;;;;7.35;6.55;;;;;;;20.83;100.00;64157.44;5085338;28;20196;-73
2023/08/06 06:54:59;;;;;;;7.05;6.35;;;;;;;21.08;100.00;64183.56;5082431;28;20322;-74
2023/08/06 06:57:26;;;;;;;7.10;6.53;;;;;;;20.80;100.00;64152.25;5067677;28;20200;-73
2023/08/06 06:59:53;;;;;;;5.85;5.45;;;;;;;20.47;100.00;64118.31;5085368;28;20220;-73
2023/08/06 07:02:21;;;;;;;12.15;9.25;;;;;;;20.23;100.00;64095.84;5079932;28;20204;-72
2023/08/06 07:04:48;;;;;;;9.15;8.15;;;;;;;19.93;100.00;64061.44;5082030;28;20283;-73
2023/08/06 07:07:15;;;;;;;9.75;7.93;;;;;;;19.87;100.00;64055.69;5080501;28;20204;-72
2023/08/06 07:09:42;;;;;;;9.35;8.00;;;;;;;20.01;100.00;64072.88;5083635;28;20273;-72
2023/08/06 07:12:10;;;;;;;10.15;8.13;;;;;;;19.92;100.00;64060.91;5084049;28;20207;-73
2023/08/06 07:14:37;;;;;;;9.27;8.48;;;;;;;20.03;100.00;64071.84;5079289;28;20261;-72
2023/08/06 07:17:05;;;;;;;8.60;7.80;;;;;;;20.30;100.00;64102.63;5080934;28;20289;-72
2023/08/06 07:19:33;;;;;;;10.65;9.00;;;;;;;20.79;100.00;64145.50;5081735;28;20214;-72
2023/08/06 07:22:00;;;;;;;9.75;8.75;;;;;;;21.34;100.00;64208.13;5083816;28;20252;-73
2023/08/06 07:24:27;;;;;;;8.10;7.22;;;;;;;21.50;100.00;64224.84;5079805;28;20227;-73
2023/08/06 07:26:54;;;;;;;5.18;4.70;;;;;;;21.33;100.00;64207.59;5083595;28;20236;-72
2023/08/06 07:29:22;;;;;;;4.40;4.00;;;;;;;21.14;100.00;64190.34;5084170;28;20231;-72
2023/08/06 07:31:50;;;;;;;5.88;4.00;;;;;;;21.10;100.00;64181.00;5081257;28;20500;-72
2023/08/06 07:34:17;;;;;;;6.60;5.65;;;;;;;21.41;100.00;64212.84;5081110;28;20525;-72
2023/08/06 07:36:46;;;;;;;5.55;5.13;;;;;;;21.57;100.00;64232.66;5083326;28;20208;-72
2023/08/06 07:39:13;;;;;;;12.23;9.30;;;;;;;21.89;100.00;64265.09;5084063;28;20269;-72
2023/08/06 07:41:41;;;;;;;4.07;3.10;;;;;;;22.04;99.40;64283.38;5080045;28;20562;-73
2023/08/06 07:44:08;;;;;;;2.63;2.53;;;;;;;22.16;88.92;64293.31;5081860;28;20215;-72
2023/08/06 07:46:35;;;;;;;2.55;2.45;;;;;;;22.26;87.57;64304.28;5083685;28;20311;-74
2023/08/06 07:49:02;;;;;;;3.03;2.83;;;;;;;22.37;87.50;64317.84;5080965;28;20299;-72
2023/08/06 07:51:29;;;;;;;2.63;2.40;;;;;;;22.10;84.62;64287.56;5080563;28;20255;-73
2023/08/06 07:53:57;;;;;;;2.70;2.60;;;;;;;21.96;87.56;64272.94;5083617;28;20273;-73
2023/08/06 07:56:24;;;;;;;2.50;2.40;;;;;;;22.00;87.14;64279.72;5082488;28;20188;-73
2023/08/06 07:58:51;;;;;;;2.78;2.15;;;;;;;21.95;82.73;64271.34;5079097;28;20223;-72
2023/08/06 08:01:18;;;;;;;2.47;2.38;;;;;;;21.83;86.58;64256.22;5081833;28;20385;-74
2023/08/06 08:03:45;;;;;;;3.20;2.70;;;;;;;21.66;87.91;64238.97;5080267;28;20215;-73
2023/08/06 08:06:12;;;;;;;2.70;2.60;;;;;;;21.76;81.06;64249.41;5083644;28;20199;-72
2023/08/06 08:08:39;;;;;;;3.13;2.83;;;;;;;22.05;82.39;64284.41;5080657;28;20238;-72
2023/08/06 08:11:08;;;;;;;3.50;2.65;;;;;;;22.30;79.13;64308.44;5081251;28;20286;-72
2023/08/06 08:13:35;;;;;;;2.70;2.50;;;;;;;22.31;76.71;64309.50;5080433;28;20284;-73
2023/08/06 08:16:02;;;;;;;2.80;2.70;;;;;;;22.27;74.42;64305.31;5079349;28;20196;-74
2023/08/06 08:18:31;;;;;;;2.10;2.05;;;;;;;22.34;71.77;64314.72;5079484;28;20219;-73
2023/08/06 08:20:58;;;;;;;2.25;2.15;;;;;;;22.23;76.30;64303.72;5077708;28;20200;-75
2023/08/06 08:23:25;;;;;;;2.88;2.67;;;;;;;22.21;78.64;64304.22;5081862;28;20525;-74
2023/08/06 08:25:52;;;;;;;3.40;3.30;;;;;;;21.98;77.18;64277.63;5080544;28;20208;-75
2023/08/06 08:28:20;;;;;;;3.97;3.70;;;;;;;22.19;77.53;64299.56;5081702;28;20236;-73
2023/08/06 08:30:48;;;;;;;3.88;3.65;;;;;;;22.42;72.03;64317.88;5081622;28;20196;-76
2023/08/06 08:33:16;;;;;;;4.80;4.50;;;;;;;22.45;75.14;64321.53;5084860;28;20253;-73
2023/08/06 08:35:43;;;;;;;4.68;4.38;;;;;;;22.53;75.31;64334.56;5080846;28;20211;-75
2023/08/06 08:38:10;;;;;;;4.07;3.78;;;;;;;22.48;71.47;64329.34;5081584;28;20238;-75
2023/08/06 08:40:43;;;;;;;4.05;3.80;;;;;;;22.47;69.19;64331.41;5085530;28;20242;-75
2023/08/06 08:43:12;;;;;;;5.05;4.65;;;;;;;22.44;74.08;64323.09;5089126;28;20499;-73
2023/08/06 08:45:41;;;;;;;5.70;4.35;;;;;;;22.87;73.59;64370.13;5078979;28;20200;-74
2023/08/06 08:48:09;;;;;;;4.20;4.00;;;;;;;22.91;69.72;64374.34;5084333;28;20212;-76
2023/08/06 08:50:36;;;;;;;4.50;3.00;;;;;;;22.83;63.51;64365.97;5084401;28;20265;-75
2023/08/06 08:53:03;;;;;;;3.38;3.28;;;;;;;22.75;69.87;64355.00;5082520;28;20217;-73
2023/08/06 08:55:30;;;;;;;4.30;4.00;;;;;;;22.99;65.86;64379.59;5080209;28;20290;-75
2023/08/06 08:57:57;;;;;;;4.03;3.72;;;;;;;23.03;67.72;64384.28;5083100;28;20524;-76
2023/08/06 09:00:25;;;;;;;3.40;3.20;;;;;;;23.28;65.02;64409.94;5083230;28;20216;-75
2023/08/06 09:02:55;;;;;;;2.45;2.35;;;;;;;23.07;69.82;64388.47;5079237;28;20286;-75
2023/08/06 09:05:24;;;;;;;2.72;2.63;;;;;;;22.92;65.12;64374.84;5084063;28;20207;-76
2023/08/06 09:07:55;;;;;;;3.38;2.78;;;;;;;23.05;62.33;64388.97;5080904;28;20228;-76
2023/08/06 09:10:25;;;;;;;2.97;2.72;;;;;;;23.34;58.65;64413.59;5074641;28;20509;-76
2023/08/06 09:12:54;;;;;;;3.95;2.70;;;;;;;23.37;62.75;64416.72;5084049;28;20291;-76
2023/08/06 09:15:24;;;;;;;2.83;2.72;;;;;;;23.37;62.26;64421.94;5087039;28;20366;-77
2023/08/06 09:17:53;;;;;;;3.00;2.80;;;;;;;23.39;60.94;64426.63;5084168;28;20540;-77
2023/08/06 09:20:20;;;;;;;2.70;2.60;;;;;;;23.36;62.85;64421.44;5085029;28;20223;-76
2023/08/06 09:22:48;;;;;;;2.97;2.88;;;;;;;23.52;60.84;64437.63;5087081;28;20240;-78
2023/08/06 09:25:23;;;;;;;2.63;2.53;;;;;;;23.39;60.75;64424.03;5078823;28;20204;-80
2023/08/06 09:27:51;;;;;;;3.47;2.80;;;;;;;23.45;62.95;64427.72;5081458;28;20210;-75
2023/08/06 09:30:30;;;;;;;2.67;2.58;;;;;;;23.82;56.44;64466.41;5079879;28;20239;-77
2023/08/06 09:32:59;;;;;;;2.92;2.72;;;;;;;24.02;57.67;64490.50;5078715;28;20572;-77
2023/08/06 09:35:29;;;;;;;3.08;2.88;;;;;;;24.12;54.76;64500.44;5099712;28;20206;-76
2023/08/06 09:37:56;;;;;;;6.57;2.60;;;;;;;24.19;53.39;64507.78;5091377;28;20223;-76
2023/08/06 09:40:28;;;;;;;3.35;3.10;;;;;;;24.02;55.88;64490.00;5090348;28;20499;-77
2023/08/06 09:42:56;;;;;;;2.35;2.25;;;;;;;24.28;54.46;64516.69;5089026;28;20803;-78
2023/08/06 09:45:23;;;;;;;2.97;2.78;;;;;;;24.54;53.84;64543.91;5087262;28;20246;-78
2023/08/06 09:47:50;;;;;;;2.38;2.28;;;;;;;24.36;54.97;64525.56;5089040;28;20249;-76
2023/08/06 09:50:19;;;;;;;3.30;2.85;;;;;;;24.59;55.47;64549.66;5092017;28;20224;-79
2023/08/06 09:52:48;;;;;;;2.58;2.17;;;;;;;24.18;55.07;64503.59;5088445;28;20431;-77
2023/08/06 09:55:15;;;;;;;3.45;3.00;;;;;;;23.95;57.25;64482.63;5101807;28;20237;-76
2023/08/06 09:57:44;;;;;;;4.32;3.28;;;;;;;24.38;55.47;64525.06;5088265;28;20280;-76
2023/08/06 10:00:12;;;;;;;3.47;3.22;;;;;;;24.15;55.55;64500.97;5086895;28;20211;-78
2023/08/06 10:02:41;;;;;;;3.58;3.38;;;;;;;24.58;53.53;64546.00;5082042;28;20199;-77
2023/08/06 10:05:09;;;;;;;3.30;3.00;;;;;;;24.94;53.48;64588.94;5089299;28;20361;-77
2023/08/06 10:07:39;;;;;;;5.13;3.42;;;;;;;24.83;54.21;64572.19;5091985;28;20192;-77
2023/08/06 10:10:07;;;;;;;3.38;3.22;;;;;;;24.99;52.76;64596.78;5094080;28;20466;-75
2023/08/06 10:12:38;;;;;;;3.40;3.22;;;;;;;25.33;51.49;64629.28;5089035;28;20202;-78
2023/08/06 10:15:11;;;;;;;3.58;3.28;;;;;;;25.64;49.62;64659.16;5091335;28;20196;-77
2023/08/06 10:17:40;;;;;;;3.33;3.10;;;;;;;25.90;50.05;64683.78;5085105;28;20200;-77
2023/08/06 10:20:11;;;;;;;3.00;2.90;;;;;;;26.05;49.47;64701.63;5086339;28;20206;-77
2023/08/06 10:22:45;;;;;;;3.65;2.78;;;;;;;25.87;48.77;64683.25;5091146;28;20190;-76
2023/08/06 10:25:12;;;;;;;4.03;2.80;;;;;;;25.68;49.13;64660.75;5085225;28;20200;-75
2023/08/06 10:27:42;;;;;;;2.60;2.33;;;;;;;25.42;49.52;64630.38;5091308;28;20203;-77
2023/08/06 10:30:25;;;;;;;2.58;2.38;;;;;;;25.33;49.66;64621.44;5085793;28;20223;-74
2023/08/06 10:32:53;;;;;;;2.70;2.50;;;;;;;25.12;49.76;64602.06;5086453;28;20216;-75
2023/08/06 10:35:31;;;;;;;2.75;2.55;;;;;;;25.19;51.28;64608.84;5083400;28;20200;-74
2023/08/06 10:38:08;;;;;;;2.97;2.78;;;;;;;25.14;50.00;64604.16;5088699;28;20235;-76
2023/08/06 10:40:37;;;;;;;3.00;2.80;;;;;;;24.98;51.86;64590.53;5085427;28;20235;-75
2023/08/06 10:43:06;;;;;;;2.85;2.53;;;;;;;24.96;51.34;64588.41;5081072;28;20254;-76
2023/08/06 10:45:36;;;;;;;3.08;2.88;;;;;;;24.94;50.83;64580.59;5085283;28;20495;-75
2023/08/06 10:48:03;;;;;;;4.00;3.70;;;;;;;24.71;52.63;64566.94;5086819;28;20249;-78
2023/08/06 10:50:31;;;;;;;4.10;3.80;;;;;;;24.89;53.13;64581.09;5078207;28;20229;-75
2023/08/06 10:52:59;;;;;;;5.13;3.55;;;;;;;24.95;52.43;64584.25;5081058;28;20220;-75
2023/08/06 10:55:29;;;;;;;6.07;4.65;;;;;;;24.49;54.68;64536.06;5086364;28;20211;-74
2023/08/06 10:57:58;;;;;;;4.10;3.80;;;;;;;24.59;53.10;64547.03;5086943;28;20261;-77
2023/08/06 11:00:26;;;;;;;4.03;3.83;;;;;;;24.72;52.81;64554.94;5089593;28;20200;-76
2023/08/06 11:02:54;;;;;;;3.30;3.10;;;;;;;24.69;54.34;64557.53;5082754;28;20216;-75
2023/08/06 11:05:21;;;;;;;4.32;4.13;;;;;;;24.84;54.57;64572.72;5088021;28;20511;-73
2023/08/06 11:07:51;;;;;;;4.32;3.38;;;;;;;24.97;54.81;64589.47;5087754;28;20200;-74
2023/08/06 11:10:17;;;;;;;3.88;3.55;;;;;;;24.94;54.16;64585.78;5087521;28;20235;-77
2023/08/06 11:12:46;;;;;;;3.58;3.38;;;;;;;25.28;53.87;64623.50;5086717;28;20192;-75
2023/08/06 11:15:13;;;;;;;3.72;3.53;;;;;;;25.30;52.65;64620.91;5090459;28;20360;-75
2023/08/06 11:17:42;;;;;;;4.10;3.80;;;;;;;24.48;55.62;64535.53;5086303;28;20489;-75
2023/08/06 11:20:10;;;;;;;3.45;3.25;;;;;;;24.60;54.51;64550.69;5083415;28;20345;-74
2023/08/06 11:22:38;;;;;;;3.20;3.05;;;;;;;24.68;54.49;64558.53;5084455;28;20192;-75
2023/08/06 11:25:07;;;;;;;3.47;3.22;;;;;;;24.62;54.06;64552.28;5093641;28;20238;-74
2023/08/06 11:27:34;;;;;;;5.53;3.45;;;;;;;24.69;54.51;64554.94;5085270;28;20239;-75
2023/08/06 11:30:03;;;;;;;2.63;2.42;;;;;;;24.51;53.63;64541.28;5085061;28;20465;-76